Tropical Cyclones
[Index]
Main Index Home Page Stock Weather Photos Extreme Storms Discussion Storm News and Storm Chasing Reports Tropical Cyclones / Hurricanes / Typhoons Weather Data and Links Wild Fires / Bushfires Weather Observation Techniques Weather Picture Catalogue Tornado Pictures and Reports Stock Video Footage and DVDs for sale
Season 1987-1988 Tropical Cyclone ARINY Track Map
Season 1987-1988 Summaries: [BoM-AU] [JTWC-AU] [JTWC-SIO] [JTWC-SPAC] [JTWC-SH]
<<- Previous TC | JTWC 1987-1988 Season | Next TC ->>

click for intensity scale information  Lat/long Grid: Show Hide

 Date Labels: Show Hide

Joint Typhoon Warning Centre Cyclone Data

Name: ARINY

05 Dec 1987 18:00 UTC to 15 Dec 1987 00:00 UTC

    date/time    lat    long     hPa   cat  kts
1987-12-05 18    7.1    95.2                  20          
1987-12-06 00    7.4    95.1                  20          
1987-12-06 06    7.6    94.8                  20          
1987-12-06 12    7.7    94.4                  20          
1987-12-06 18    7.8    93.8                  20          
1987-12-07 00    8.1    93.2                  20          
1987-12-07 06    8.5    92.7                  20          
1987-12-07 12    8.7    92.9                  25          
1987-12-07 18    8.9    93.1                  25          
1987-12-08 00    9.3    93.2                  25          
1987-12-08 06    9.8    92.6                  25          
1987-12-08 12   10.4    92.0                  25          
1987-12-08 18   11.3    91.0                  25          
1987-12-09 00   11.6    89.9                  30          
1987-12-09 06   11.7    89.1                  30          
1987-12-09 12   12.1    88.5                  30          
1987-12-09 18   12.3    87.9                  35          
1987-12-10 00   12.6    86.9                  35          
1987-12-10 06   13.1    85.9            1     40          
1987-12-10 12   13.8    85.2            1     45          
1987-12-10 18   14.6    84.8            1     50          
1987-12-11 00   15.5    84.6            2     55          
1987-12-11 06   16.1    84.4            2     55          
1987-12-11 12   16.5    84.3            2     55          
1987-12-11 18   16.8    84.0            2     55          
1987-12-12 00   17.2    83.6            2     55          
1987-12-12 06   17.8    83.1            2     55          
1987-12-12 12   18.3    82.7            2     55          
1987-12-12 18   18.5    82.3            2     55          
1987-12-13 00   18.2    81.8            2     55          
1987-12-13 06   17.8    81.2            2     55          
1987-12-13 12   17.4    80.4            1     50          
1987-12-13 18   17.1    79.3            1     45          
1987-12-14 00   17.1    77.9            1     40          
1987-12-14 06   17.1    76.5                  35          
1987-12-14 12   17.2    75.4                  30          
1987-12-14 18   17.2    74.5                  30          
1987-12-15 00   17.3    73.9                  25          
Winds are 1-min average.

Tropical cyclone tracks developed by Michael Bath using data from the Joint Typhoon Warning Centre Best Tracks and Google Maps.


[Australian Severe Weather index] [Copyright Notice] [Email Contacts] [Search This Site] [Privacy Policy]
Document: tropical_cyclone_ariny.htm Updated: 18 September 2016